Latest Weather Observations for Cairns Racecourse

IDQ60801

Issued at 5:32 pm EST Friday 12 February 2016 (issued every 30 minutes, with the page automatically refreshed every 10 minutes)

About weather observations | Map of weather stations | Latest weather observations for QLD | Other Formats
Station Details ID: 031222 Name: CAIRNS RACECOURSE Lat: -16.95 Lon: 145.75 Height: 4.1 m
Data from the previous 72 hours. | See also: Recent months at Cairns Racecourse
Date/Time
EST
Temp
°C
App
Temp
°C
Dew
Point
Rel
Hum
%
Delta-T
°C
Wind Press
QNH
hPa
Press
MSL
hPa
Rain
since 9 am
mm
Dir
 
Spd
km/h
Gust
km/h
Spd
kts
Gust
kts
12/05:30pm 30.2 30.6 20.7 56 6.3 ESE 19 32 10 17 - - 0.0
12/05:00pm 30.6 30.8 21.4 58 6.2 ESE 22 35 12 19 - - 0.0
12/04:30pm 31.1 31.6 21.9 58 6.2 ESE 22 30 12 16 - - 0.0
12/04:00pm 31.2 32.4 22.5 60 5.9 ESE 20 30 11 16 - - 0.0
12/03:30pm 31.7 32.8 22.4 58 6.3 ESE 20 32 11 17 - - 0.0
12/03:00pm 31.9 33.0 22.3 56 6.5 ESE 20 32 11 17 - - 0.0
12/02:30pm 32.0 33.1 22.4 57 6.6 ESE 20 30 11 16 - - 0.0
12/02:00pm 32.0 33.2 22.1 55 6.7 ESE 19 28 10 15 - - 0.0
12/01:30pm 32.0 33.2 22.1 55 6.7 ESE 19 26 10 14 - - 0.0
12/01:00pm 32.4 34.4 22.2 55 7.0 E 15 24 8 13 - - 0.0
12/12:30pm 31.9 32.6 20.5 51 7.6 E 17 24 9 13 - - 0.0
12/12:00pm 31.7 33.2 20.6 51 7.4 ESE 13 26 7 14 - - 0.0
12/11:30am 31.9 33.7 19.5 47 8.1 SE 9 19 5 10 - - 0.0
12/11:00am 31.3 33.1 21.2 55 6.8 ESE 13 17 7 9 - - 0.0
12/10:30am 31.1 33.2 21.0 55 6.8 SE 11 17 6 9 - - 0.0
12/10:00am 30.2 32.4 21.8 60 5.7 SSE 13 19 7 10 - - 0.0
12/09:30am 29.7 32.4 22.9 67 4.6 S 13 19 7 10 - - 0.0
12/09:00am 29.0 31.4 22.2 66 4.6 SSE 13 17 7 9 - - 0.2
12/08:30am 27.8 30.5 22.1 71 3.8 SSE 11 13 6 7 - - 0.2
12/08:00am 26.6 29.7 22.2 77 3.0 SSE 9 11 5 6 - - 0.2
12/07:30am 25.5 29.6 22.2 82 2.2 SSE 4 9 2 5 - - 0.2
12/07:00am 24.2 27.8 22.3 89 1.3 SE 7 9 4 5 - - 0.2
12/06:30am 23.0 26.9 21.8 93 0.8 SSE 4 7 2 4 - - 0.2
12/06:00am 23.2 26.6 22.0 93 0.8 ESE 7 7 4 4 - - 0.2
12/05:30am 23.2 26.7 21.8 92 0.9 SSE 6 7 3 4 - - 0.2
12/05:00am 23.5 26.8 21.9 91 1.1 SSE 7 9 4 5 - - 0.2
12/04:30am 23.8 26.5 22.1 90 1.1 SSE 11 15 6 8 - - 0.2
12/04:00am 23.7 27.2 22.1 91 1.1 SSE 7 11 4 6 - - 0.2
12/03:30am 23.9 27.5 22.3 91 1.1 SSE 7 9 4 5 - - 0.2
12/03:00am 24.1 27.9 22.4 90 1.1 SSE 6 7 3 4 - - 0.2
12/02:30am 24.6 28.6 22.7 89 1.3 SSE 6 7 3 4 - - 0.2
12/02:00am 24.9 29.6 22.6 87 1.5 S 2 7 1 4 - - 0.2
12/01:30am 25.0 29.5 22.9 88 1.4 S 4 7 2 4 - - 0.2
12/01:00am 25.1 30.3 22.8 87 1.6 CALM 0 6 0 3 - - 0.2
12/12:30am 24.9 30.0 22.6 87 1.5 CALM 0 0 0 0 - - 0.2
12/12:00am 25.1 29.9 22.8 87 1.6 E 2 7 1 4 - - 0.2
 
Date/Time
EST
Temp
°C
App
Temp
°C
Dew
Point
Rel
Hum
%
Delta-T
°C
Wind Press
QNH
hPa
Press
MSL
hPa
Rain
since 9 am
mm
Dir
 
Spd
km/h
Gust
km/h
Spd
kts
Gust
kts
11/11:30pm 25.3 30.0 22.6 85 1.8 SE 2 7 1 4 - - 0.2
11/11:00pm 25.3 29.2 22.6 85 1.8 SSE 6 7 3 4 - - 0.2
11/10:30pm 25.5 29.5 22.8 85 1.8 SE 6 7 3 4 - - 0.2
11/10:00pm 25.2 29.5 22.7 86 1.7 SSE 4 7 2 4 - - 0.2
11/09:30pm 25.5 29.0 22.2 82 2.2 SW 7 9 4 5 - - 0.2
11/09:00pm 25.8 29.8 22.7 83 2.1 WSW 6 7 3 4 - - 0.2
11/08:30pm 26.2 30.1 22.9 82 2.2 SW 7 9 4 5 - - 0.2
11/08:00pm 26.8 30.0 22.4 77 3.0 S 9 13 5 7 - - 0.2
11/07:30pm 27.0 30.2 22.4 76 3.1 S 9 13 5 7 - - 0.2
11/07:00pm 27.0 30.2 22.4 76 3.1 S 9 15 5 8 - - 0.2
11/06:30pm 26.9 30.5 22.3 76 3.1 SSW 7 13 4 7 - - 0.2
11/06:00pm 27.0 29.5 22.4 76 3.1 SSW 13 17 7 9 - - 0.2
11/05:30pm 27.0 28.7 22.4 76 3.1 SSW 17 24 9 13 - - 0.2
11/05:00pm 26.6 28.0 21.8 75 3.2 SSW 17 24 9 13 - - 0.2
11/04:30pm 27.1 28.9 21.8 73 3.5 SSE 15 22 8 12 - - 0.2
11/04:00pm 26.8 30.0 23.7 83 2.1 SSE 13 20 7 11 - - 0.2
11/03:30pm 29.0 30.0 22.2 66 4.6 ESE 20 32 11 17 - - 0.0
11/03:00pm 29.9 31.2 22.3 63 5.2 ESE 19 26 10 14 - - 0.0
11/02:30pm 29.4 33.3 22.9 68 4.4 SSE 7 13 4 7 - - 0.0
11/02:00pm 29.2 31.1 22.7 68 4.4 ESE 17 26 9 14 - - 0.0
11/01:30pm 28.6 31.0 24.2 77 3.1 ESE 19 28 10 15 - - 0.0
11/01:00pm 29.2 30.0 23.2 70 4.1 E 24 35 13 19 - - 0.0
11/12:30pm 30.5 31.4 21.6 59 6.0 ESE 19 28 10 15 - - 0.0
11/12:00pm 30.4 32.3 22.8 64 5.2 ESE 17 24 9 13 - - 0.0
11/11:30am 30.7 31.8 22.3 61 5.7 E 20 32 11 17 - - 0.0
11/11:00am 31.5 34.6 23.6 63 5.5 SE 13 22 7 12 - - 0.0
11/10:30am 31.0 33.9 23.1 63 5.4 SE 13 20 7 11 - - 0.0
11/10:00am 30.6 34.0 24.0 68 4.6 S 13 20 7 11 - - 0.0
11/09:30am 30.2 33.6 23.4 67 4.7 SE 11 17 6 9 - - 0.0
11/09:00am 29.3 32.8 23.5 71 4.0 S 11 17 6 9 - - 0.0
11/08:30am 28.3 32.7 23.4 75 3.4 SE 6 9 3 5 - - 0.0
11/08:00am 26.9 31.4 22.9 79 2.7 SSE 4 7 2 4 - - 0.0
11/07:30am 25.4 29.5 22.9 86 1.7 E 6 9 3 5 - - 0.0
11/07:00am 24.3 27.3 22.7 91 1.1 SSE 11 13 6 7 - - 0.0
11/06:30am 23.8 28.1 22.6 93 0.8 S 4 7 2 4 - - 0.0
11/06:00am 24.0 29.3 23.0 94 0.7 CALM 0 7 0 4 - - 0.0
11/05:30am 23.7 27.6 22.5 93 0.8 S 6 9 3 5 - - 0.0
11/05:00am 23.8 28.9 22.6 93 0.8 CALM 0 0 0 0 - - 0.0
11/04:30am 23.7 27.9 22.5 93 0.8 SSE 4 7 2 4 - - 0.0
11/04:00am 23.8 27.5 22.6 93 0.8 SSE 7 9 4 5 - - 0.0
11/03:30am 23.9 27.8 22.9 94 0.7 S 7 9 4 5 - - 0.0
11/03:00am 23.7 28.7 22.5 93 0.8 CALM 0 0 0 0 - - 0.0
11/02:30am 23.9 28.0 22.3 91 1.1 SSE 4 9 2 5 - - 0.0
11/02:00am 24.2 28.3 23.0 93 0.8 S 6 9 3 5 - - 0.0
11/01:30am 24.1 28.1 22.7 92 0.9 S 6 7 3 4 - - 0.0
11/01:00am 24.3 29.4 22.6 90 1.1 CALM 0 0 0 0 - - 0.0
11/12:30am 24.4 28.2 22.7 90 1.1 SSE 7 9 4 5 - - 0.0
11/12:00am 24.5 28.3 22.8 90 1.1 SSW 7 9 4 5 - - 0.0
 
Date/Time
EST
Temp
°C
App
Temp
°C
Dew
Point
Rel
Hum
%
Delta-T
°C
Wind Press
QNH
hPa
Press
MSL
hPa
Rain
since 9 am
mm
Dir
 
Spd
km/h
Gust
km/h
Spd
kts
Gust
kts
10/11:30pm 25.0 29.8 22.9 88 1.4 SE 2 9 1 5 - - 0.0
10/11:00pm 25.1 29.2 23.0 88 1.4 SSE 6 7 3 4 - - 0.0
10/10:30pm 25.0 29.1 22.9 88 1.4 S 6 7 3 4 - - 0.0
10/10:00pm 25.3 29.3 22.8 86 1.7 SSE 6 9 3 5 - - 0.0
10/09:30pm 25.5 28.7 22.4 83 2.1 SE 9 11 5 6 - - 0.0
10/09:00pm 25.8 29.5 22.5 82 2.2 SE 7 9 4 5 - - 0.0
10/08:30pm 26.0 29.7 22.3 80 2.5 SSE 6 7 3 4 - - 0.0
10/08:00pm 26.4 30.0 22.0 77 2.9 SSE 6 9 3 5 - - 0.0
10/07:30pm 26.3 29.3 21.9 77 2.9 S 9 15 5 8 - - 0.0
10/07:00pm 26.6 30.1 22.2 77 3.0 SSE 7 11 4 6 - - 0.0
10/06:30pm 26.8 29.8 22.0 75 3.2 SSE 9 13 5 7 - - 0.0
10/06:00pm 27.2 29.6 21.5 71 3.8 SSE 11 17 6 9 - - 0.0
10/05:30pm 27.3 29.6 22.0 73 3.6 S 13 19 7 10 - - 0.0
10/05:00pm 27.2 29.2 22.2 74 3.4 S 15 26 8 14 - - 0.0
10/04:30pm 27.9 30.1 22.6 73 3.6 S 15 24 8 13 - - 0.0
10/04:00pm 28.7 31.0 22.7 70 4.1 SSE 15 22 8 12 - - 0.0
10/03:30pm 28.6 31.1 23.1 72 3.8 S 15 22 8 12 - - 0.0
10/03:00pm 28.2 29.9 23.1 74 3.5 S 19 26 10 14 - - 0.0
10/02:30pm 28.2 30.7 23.8 77 3.0 SSW 17 26 9 14 - - 0.0
10/02:00pm 28.0 30.6 24.0 79 2.8 SSW 17 24 9 13 - - 0.0
10/01:30pm 27.5 29.4 22.7 75 3.3 SE 17 24 9 13 - - 0.0
10/01:00pm 29.7 32.0 23.4 69 4.3 SSE 17 24 9 13 - - 0.0
10/12:30pm 30.3 32.7 24.2 70 4.2 SSW 19 30 10 16 - - 0.0
10/12:00pm 29.7 31.9 23.2 68 4.5 S 17 28 9 15 - - 0.0
10/11:30am 28.4 30.0 23.8 76 3.2 SE 22 32 12 17 - - 0.0
10/11:00am 29.8 32.6 23.0 67 4.7 SSE 13 20 7 11 - - 0.0
10/10:30am 29.0 31.9 23.2 71 4.0 SSE 13 20 7 11 - - 0.0
10/10:00am 28.3 29.9 22.1 69 4.2 S 17 24 9 13 - - 0.0
10/09:30am 28.7 30.7 22.9 71 4.0 S 17 30 9 16 - - 0.0
10/09:00am 29.1 32.5 23.3 71 4.0 S 11 17 6 9 - - -
10/08:30am 28.2 32.8 24.2 79 2.8 SSE 7 11 4 6 - - -
10/08:00am 26.8 31.1 23.7 83 2.1 SSE 7 11 4 6 - - -
10/07:30am 26.5 31.3 24.2 87 1.6 SE 6 9 3 5 - - -
10/07:00am 25.8 31.4 23.5 87 1.6 CALM 0 0 0 0 - - -
10/06:30am 25.6 29.8 23.1 86 1.7 SE 6 7 3 4 - - -
10/06:00am 25.6 29.0 22.7 84 2.0 S 9 15 5 8 - - -
10/05:30am 25.4 29.1 23.3 88 1.4 S 9 13 5 7 - - -
10/05:00am 25.5 28.8 23.2 87 1.6 S 11 17 6 9 - - -
10/04:30am 25.9 28.8 23.2 85 1.8 S 13 20 7 11 - - -
10/04:00am 25.6 29.7 23.3 87 1.6 S 7 11 4 6 - - -
10/03:30am 25.5 29.8 23.6 89 1.3 SSE 7 13 4 7 - - -
10/03:00am 25.7 29.6 23.0 85 1.8 SE 7 11 4 6 - - 0.2
10/02:30am 25.9 30.0 23.2 85 1.8 S 7 13 4 7 - - -
10/02:00am 25.8 30.0 23.5 87 1.6 S 7 11 4 6 - - -
10/01:30am 26.0 30.1 23.3 85 1.8 SSE 7 11 4 6 - - -
10/01:00am 26.6 30.3 23.3 82 2.3 S 9 13 5 7 - - -
10/12:30am 26.7 30.2 23.6 83 2.1 S 11 17 6 9 - - -
10/12:00am 26.7 30.3 23.8 84 2.0 S 11 13 6 7 - - -
 
Date/Time
EST
Temp
°C
App
Temp
°C
Dew
Point
Rel
Hum
%
Delta-T
°C
Wind Press
QNH
hPa
Press
MSL
hPa
Rain
since 9 am
mm
Dir
 
Spd
km/h
Gust
km/h
Spd
kts
Gust
kts
09/11:30pm 26.3 30.9 24.2 88 1.4 SSW 7 13 4 7 - - -
09/11:00pm 25.8 28.9 23.5 87 1.6 S 13 22 7 12 - - -
09/10:30pm 27.1 31.1 23.8 82 2.3 S 9 13 5 7 - - -
09/10:00pm 27.0 31.2 24.1 84 2.0 SSW 9 15 5 8 - - -
09/09:30pm 27.1 31.0 24.2 84 2.0 SSE 11 15 6 8 - - -
09/09:00pm 27.1 31.4 24.2 84 2.0 SSE 9 15 5 8 - - 0.0
09/08:30pm 27.0 31.1 24.5 86 1.7 S 11 17 6 9 - - -
09/08:00pm 26.9 31.3 24.4 86 1.7 S 9 13 5 7 - - -
09/07:30pm 27.1 31.9 24.4 85 1.9 S 7 13 4 7 - - -
09/07:00pm 27.5 31.7 24.1 82 2.3 SSE 9 15 5 8 - - -
09/06:30pm 27.9 31.8 24.3 81 2.5 S 11 17 6 9 - - -
09/06:00pm 28.3 32.4 24.5 80 2.6 SSE 11 15 6 8 - - -

Other Formats:

Comma delimited format used in spreadsheet applications
http://www.bom.gov.au/fwo/IDQ60801/IDQ60801.94288.axf

JavaScript Object Notation format (JSON) in row-major order
http://www.bom.gov.au/fwo/IDQ60801/IDQ60801.94288.json